Time;durP1;ratioP1;P1;durP2;ratioP2;P2;SDS_P1;SDS_P2;PMS_P1;PMS_P2;Temp;Humidity;BMP_temperature;BMP_pressure;BME280_temperature;BME280_humidity;BME280_pressure;Samples;Min_cycle;Max_cycle;Signal;HPM_P1;HPM_P2
2023/10/11 00:00:51;;;;;;;13.18;4.30;;;;;;;18.69;67.80;95909.81;5034159;28;20222;-85
2023/10/11 00:03:23;;;;;;;14.43;4.55;;;;;;;18.69;67.68;95906.41;5033617;28;20584;-85
2023/10/11 00:05:51;;;;;;;8.70;4.05;;;;;;;18.66;67.76;95909.47;5035398;28;20229;-84
2023/10/11 00:08:18;;;;;;;10.82;4.47;;;;;;;18.63;68.01;95921.13;5034333;28;20194;-85
2023/10/11 00:10:53;;;;;;;9.10;4.22;;;;;;;18.61;68.12;95925.75;5034994;28;20206;-84
2023/10/11 00:13:22;;;;;;;17.15;4.93;;;;;;;18.61;68.04;95916.13;5035239;28;20209;-85
2023/10/11 00:15:50;;;;;;;10.32;4.75;;;;;;;18.59;67.97;95918.16;5034157;28;20229;-84
2023/10/11 00:18:18;;;;;;;16.67;4.50;;;;;;;18.59;68.04;95915.53;5033409;28;20209;-85
2023/10/11 00:20:57;;;;;;;12.82;4.32;;;;;;;18.60;67.91;95917.16;5034425;28;20226;-85
2023/10/11 00:23:25;;;;;;;12.25;4.78;;;;;;;18.57;68.17;95917.53;5039966;28;20603;-85
2023/10/11 00:25:54;;;;;;;12.10;4.50;;;;;;;18.58;68.11;95907.91;5052799;28;20593;-85
2023/10/11 00:28:24;;;;;;;9.57;4.10;;;;;;;18.54;68.22;95920.59;5034573;28;20199;-85
2023/10/11 00:30:52;;;;;;;9.57;4.25;;;;;;;18.51;68.19;95918.41;5034617;28;20252;-85
2023/10/11 00:33:18;;;;;;;12.82;4.78;;;;;;;18.46;68.65;95925.31;5032005;28;20209;-84
2023/10/11 00:35:48;;;;;;;11.70;4.50;;;;;;;18.42;68.70;95930.16;5032525;28;20218;-85
2023/10/11 00:38:19;;;;;;;10.52;4.13;;;;;;;18.40;68.83;95923.56;5035014;28;20203;-85
2023/10/11 00:41:00;;;;;;;8.68;4.50;;;;;;;18.35;69.01;95932.03;5033679;28;20222;-84
2023/10/11 00:43:35;;;;;;;10.90;4.57;;;;;;;18.34;68.93;95922.59;5026801;28;20194;-84
2023/10/11 00:46:03;;;;;;;12.43;4.43;;;;;;;18.30;69.11;95926.66;5033820;28;20228;-85
2023/10/11 00:48:31;;;;;;;10.75;4.78;;;;;;;18.29;69.09;95925.06;5034665;28;20205;-85
2023/10/11 00:50:58;;;;;;;8.63;4.45;;;;;;;18.33;68.79;95921.00;5031954;28;20217;-85
2023/10/11 00:53:26;;;;;;;11.65;4.18;;;;;;;18.31;69.05;95923.03;5033104;28;20210;-85
2023/10/11 00:55:55;;;;;;;10.45;3.80;;;;;;;18.34;68.86;95914.78;5032840;28;20222;-84
2023/10/11 00:58:22;;;;;;;15.90;4.55;;;;;;;18.35;68.87;95911.16;5033577;28;20566;-85
2023/10/11 01:00:50;;;;;;;13.57;3.80;;;;;;;18.38;68.52;95907.31;5033463;28;20288;-84
2023/10/11 01:03:17;;;;;;;11.68;4.15;;;;;;;18.40;68.44;95893.06;5033452;28;20206;-85
2023/10/11 01:05:45;;;;;;;10.52;4.15;;;;;;;18.43;68.47;95903.06;5031229;28;20249;-85
2023/10/11 01:08:12;;;;;;;16.17;4.57;;;;;;;18.40;68.53;95900.88;5033734;28;20242;-85
2023/10/11 01:10:45;;;;;;;10.82;4.30;;;;;;;18.40;68.51;95894.88;5032786;28;20624;-85
2023/10/11 01:13:11;;;;;;;9.30;4.10;;;;;;;18.41;68.33;95891.25;5033373;28;20786;-84
2023/10/11 01:15:38;;;;;;;13.68;4.18;;;;;;;18.41;68.40;95891.25;5033416;28;20217;-85
2023/10/11 01:18:06;;;;;;;11.35;4.28;;;;;;;18.41;68.22;95896.47;5033477;28;20559;-85
2023/10/11 01:20:39;;;;;;;14.07;4.22;;;;;;;18.39;68.30;95890.66;5033517;28;20595;-85
2023/10/11 01:23:05;;;;;;;10.70;4.13;;;;;;;18.35;68.38;95890.31;5035308;28;20204;-85
2023/10/11 01:25:32;;;;;;;11.85;4.30;;;;;;;18.37;68.25;95875.25;5037051;28;20722;-85
2023/10/11 01:28:00;;;;;;;8.68;4.03;;;;;;;18.42;68.17;95877.22;5033513;28;20292;-85
2023/10/11 01:30:27;;;;;;;9.25;3.95;;;;;;;18.43;68.19;95881.41;5035851;28;20760;-85
2023/10/11 01:32:54;;;;;;;14.70;4.15;;;;;;;18.44;67.98;95869.97;5023698;28;20249;-84
2023/10/11 01:35:21;;;;;;;10.63;4.20;;;;;;;18.43;68.00;95869.16;5027184;28;20226;-85
2023/10/11 01:37:49;;;;;;;14.90;4.35;;;;;;;18.40;68.02;95876.63;5037920;28;20199;-84
2023/10/11 01:40:21;;;;;;;12.50;4.32;;;;;;;18.35;68.48;95877.28;5030455;28;20219;-85
2023/10/11 01:42:49;;;;;;;11.65;4.32;;;;;;;18.33;68.25;95876.69;5028734;28;20640;-84
2023/10/11 01:45:17;;;;;;;13.85;4.25;;;;;;;18.35;68.18;95879.88;5038741;28;20222;-85
2023/10/11 01:47:46;;;;;;;12.07;4.20;;;;;;;18.36;68.22;95873.66;5039390;28;20269;-85
2023/10/11 01:50:12;;;;;;;13.48;4.65;;;;;;;18.36;68.12;95871.03;5038896;28;20695;-85
2023/10/11 01:52:39;;;;;;;9.25;4.30;;;;;;;18.38;68.04;95869.03;5040009;28;20199;-85
2023/10/11 01:55:10;;;;;;;14.23;4.60;;;;;;;18.37;67.88;95864.81;5037660;28;20213;-85
2023/10/11 01:57:38;;;;;;;8.35;4.15;;;;;;;18.33;68.13;95873.28;5038919;28;20237;-85
2023/10/11 02:00:13;;;;;;;14.30;4.60;;;;;;;18.32;68.03;95856.84;5039164;28;20233;-85
2023/10/11 02:02:44;;;;;;;8.23;4.05;;;;;;;18.28;68.27;95871.31;5039634;28;20229;-85
2023/10/11 02:05:12;;;;;;;11.25;4.05;;;;;;;18.29;68.03;95871.09;5037769;28;20482;-85
2023/10/11 02:07:40;;;;;;;11.18;4.20;;;;;;;18.28;68.27;95863.50;5038967;28;20194;-85
2023/10/11 02:10:11;;;;;;;7.97;4.32;;;;;;;18.28;68.08;95860.91;5036647;28;20194;-85
2023/10/11 02:12:40;;;;;;;14.90;4.50;;;;;;;18.22;68.35;95865.19;5018161;28;20290;-85
2023/10/11 02:15:07;;;;;;;8.73;4.10;;;;;;;18.14;68.97;95883.72;5024589;28;20641;-85
2023/10/11 02:17:37;;;;;;;11.48;4.25;;;;;;;18.13;69.01;95887.31;5037167;28;20202;-85
2023/10/11 02:20:06;;;;;;;9.00;4.13;;;;;;;18.13;69.10;95889.94;5037549;28;20684;-85
2023/10/11 02:22:34;;;;;;;17.13;4.07;;;;;;;18.17;69.06;95892.91;5035083;28;20202;-85
2023/10/11 02:25:09;;;;;;;12.85;4.60;;;;;;;18.14;68.97;95888.13;5051856;28;20220;-85
2023/10/11 02:27:37;;;;;;;10.07;4.35;;;;;;;18.16;68.45;95873.88;5034744;28;20212;-85
2023/10/11 02:30:07;;;;;;;10.98;4.63;;;;;;;18.18;68.53;95871.03;5035711;28;20197;-85
2023/10/11 02:32:38;;;;;;;11.85;4.32;;;;;;;18.19;68.66;95886.47;5035936;28;20229;-85
2023/10/11 02:35:06;;;;;;;10.95;4.05;;;;;;;18.20;68.38;95875.03;5026406;28;20871;-85
2023/10/11 02:37:36;;;;;;;14.32;4.68;;;;;;;18.14;68.43;95867.28;5034056;28;20573;-84
2023/10/11 02:40:07;;;;;;;10.50;4.05;;;;;;;18.10;68.51;95877.31;5034290;28;20234;-85
2023/10/11 02:42:36;;;;;;;10.70;4.13;;;;;;;18.08;68.65;95881.97;5021492;28;20632;-85
2023/10/11 02:45:06;;;;;;;11.90;4.28;;;;;;;18.12;68.34;95874.50;5033431;28;20209;-85
2023/10/11 02:47:35;;;;;;;12.80;4.78;;;;;;;18.13;68.37;95865.69;5034051;28;20591;-85
2023/10/11 02:50:06;;;;;;;11.30;4.30;;;;;;;18.13;68.18;95860.47;5033537;28;20727;-85
2023/10/11 02:52:36;;;;;;;11.98;4.05;;;;;;;18.09;68.40;95864.53;5034791;28;20210;-85
2023/10/11 02:55:16;;;;;;;11.23;4.20;;;;;;;18.03;69.03;95873.22;5034513;28;20214;-84
2023/10/11 02:57:43;;;;;;;11.57;4.47;;;;;;;18.00;69.04;95871.81;5034088;28;20241;-85
2023/10/11 03:00:21;;;;;;;10.10;4.10;;;;;;;17.99;68.54;95862.41;5032966;28;20222;-85
2023/10/11 03:02:55;;;;;;;15.55;4.28;;;;;;;17.91;68.85;95870.50;5034090;28;20206;-85
2023/10/11 03:05:27;;;;;;;12.30;4.40;;;;;;;17.92;68.77;95865.06;5034001;28;20276;-85
2023/10/11 03:08:13;;;;;;;9.68;4.20;;;;;;;17.90;68.65;95869.69;5033518;28;20206;-85
2023/10/11 03:10:45;;;;;;;12.65;4.40;;;;;;;17.87;69.07;95877.97;5034113;28;20289;-84
2023/10/11 03:13:18;;;;;;;10.60;4.50;;;;;;;17.87;69.21;95885.78;5034267;28;20213;-84
2023/10/11 03:15:54;;;;;;;10.48;4.45;;;;;;;17.89;69.05;95882.97;5032649;28;20213;-84
2023/10/11 03:18:22;;;;;;;11.88;4.00;;;;;;;17.88;69.12;95878.75;5034392;28;20232;-84
2023/10/11 03:20:50;;;;;;;11.88;4.28;;;;;;;17.87;68.95;95871.97;5033736;28;20222;-85
2023/10/11 03:23:20;;;;;;;13.82;4.28;;;;;;;17.88;68.58;95865.75;5040301;28;20197;-85
2023/10/11 03:25:49;;;;;;;16.38;4.50;;;;;;;17.87;68.73;95861.53;5035088;28;20226;-85
2023/10/11 03:28:21;;;;;;;11.52;4.38;;;;;;;17.86;68.85;95871.16;5034864;28;20205;-84
2023/10/11 03:30:49;;;;;;;7.55;3.65;;;;;;;17.83;68.80;95870.78;5033650;28;20588;-85
2023/10/11 03:33:17;;;;;;;14.05;4.07;;;;;;;17.81;68.87;95870.19;5033263;28;20205;-85
2023/10/11 03:35:45;;;;;;;10.27;4.03;;;;;;;17.78;68.75;95871.44;5033138;28;20237;-84
2023/10/11 03:38:17;;;;;;;11.95;4.57;;;;;;;17.71;69.02;95872.47;5033753;28;20194;-85
2023/10/11 03:40:55;;;;;;;12.60;3.97;;;;;;;17.74;69.08;95866.84;5032670;28;20687;-84
2023/10/11 03:43:21;;;;;;;16.08;4.55;;;;;;;17.78;68.89;95876.63;5016283;28;20203;-85
2023/10/11 03:45:50;;;;;;;9.15;4.55;;;;;;;17.70;69.31;95876.13;5032578;28;20218;-85
2023/10/11 03:48:17;;;;;;;10.95;4.03;;;;;;;17.72;69.08;95874.88;5032320;28;20238;-85
2023/10/11 03:50:47;;;;;;;7.80;3.67;;;;;;;17.70;69.09;95873.53;5033552;28;20206;-85
2023/10/11 03:53:15;;;;;;;9.80;4.13;;;;;;;17.66;69.32;95882.75;5033279;28;20328;-84
2023/10/11 03:55:46;;;;;;;11.30;4.20;;;;;;;17.63;69.48;95883.94;5032164;28;20750;-85
2023/10/11 03:58:22;;;;;;;9.82;4.05;;;;;;;17.67;69.24;95884.34;5033232;28;20212;-84
2023/10/11 04:00:50;;;;;;;11.88;4.38;;;;;;;17.65;69.24;95881.97;5034136;28;20622;-85
2023/10/11 04:03:18;;;;;;;7.35;4.13;;;;;;;17.68;68.92;95860.72;5032174;28;20804;-84
2023/10/11 04:05:47;;;;;;;12.77;4.35;;;;;;;17.68;68.75;95865.13;5033377;28;20316;-85
2023/10/11 04:08:21;;;;;;;12.70;4.55;;;;;;;17.66;68.75;95854.91;5034502;28;20244;-85
2023/10/11 04:10:49;;;;;;;14.23;4.30;;;;;;;17.66;68.86;95848.91;5033921;28;20288;-85
2023/10/11 04:13:18;;;;;;;12.73;4.22;;;;;;;17.61;68.88;95852.91;5033007;28;20204;-85
2023/10/11 04:15:49;;;;;;;10.98;4.20;;;;;;;17.59;69.24;95860.13;5033179;28;20225;-85
2023/10/11 04:18:32;;;;;;;9.27;3.92;;;;;;;17.59;69.00;95861.94;5033718;28;20203;-84
2023/10/11 04:21:14;;;;;;;10.70;4.10;;;;;;;17.58;68.97;95862.97;5032629;28;20214;-85
2023/10/11 04:23:45;;;;;;;11.68;4.32;;;;;;;17.53;69.26;95871.41;5030538;28;20695;-85
2023/10/11 04:26:23;;;;;;;14.80;3.75;;;;;;;17.52;69.32;95872.41;5052472;28;20276;-85
2023/10/11 04:28:52;;;;;;;11.35;4.13;;;;;;;17.51;69.26;95867.44;5034390;28;20205;-85
2023/10/11 04:31:28;;;;;;;12.70;4.78;;;;;;;17.55;69.21;95863.38;5035267;28;20676;-85
2023/10/11 04:33:57;;;;;;;10.00;4.65;;;;;;;17.54;69.10;95861.78;5033677;28;20198;-85
2023/10/11 04:36:24;;;;;;;12.38;4.57;;;;;;;17.53;68.92;95860.97;5035833;28;20284;-85
2023/10/11 04:38:50;;;;;;;10.07;4.18;;;;;;;17.51;68.90;95859.63;5034256;28;20218;-85
2023/10/11 04:41:19;;;;;;;12.15;4.10;;;;;;;17.46;69.01;95862.06;5027835;28;20215;-85
2023/10/11 04:43:51;;;;;;;12.55;4.35;;;;;;;17.43;68.97;95862.47;5024826;28;20198;-84
2023/10/11 04:46:18;;;;;;;9.93;4.05;;;;;;;17.47;69.02;95861.84;5037594;28;20226;-85
2023/10/11 04:48:45;;;;;;;9.98;3.88;;;;;;;17.48;68.78;95862.66;5037320;28;20265;-85
2023/10/11 04:51:21;;;;;;;11.05;4.07;;;;;;;17.49;68.66;95851.22;5036126;28;20707;-85
2023/10/11 04:53:56;;;;;;;11.60;4.25;;;;;;;17.45;68.67;95856.06;5021909;28;20667;-84
2023/10/11 04:59:27;;;;;;;12.20;4.35;;;;;;;17.37;69.32;95865.91;5000319;28;20233;-85
2023/10/11 05:01:58;;;;;;;9.57;4.03;;;;;;;17.38;69.05;95862.31;5038079;28;20228;-84
2023/10/11 05:04:30;;;;;;;10.63;4.00;;;;;;;17.39;68.98;95862.09;5036155;28;20234;-85
2023/10/11 05:07:03;;;;;;;10.35;4.18;;;;;;;17.39;69.13;95869.13;5033034;28;20222;-85
2023/10/11 05:09:38;;;;;;;9.02;4.40;;;;;;;17.40;69.06;95860.28;5034674;28;20206;-85
2023/10/11 05:12:08;;;;;;;9.30;4.15;;;;;;;17.39;69.19;95874.31;5036343;28;20284;-85
2023/10/11 05:14:39;;;;;;;9.95;4.40;;;;;;;17.35;69.36;95888.75;5036606;28;20202;-85
2023/10/11 05:17:31;;;;;;;12.70;4.80;;;;;;;17.34;69.47;95885.34;5030622;28;20214;-85
2023/10/11 05:20:20;;;;;;;11.05;4.75;;;;;;;17.35;69.40;95880.94;5016486;28;20203;-84
2023/10/11 05:22:49;;;;;;;11.85;4.35;;;;;;;17.31;69.71;95905.81;5032846;28;20199;-85
2023/10/11 05:25:38;;;;;;;12.50;3.92;;;;;;;17.34;69.44;95893.16;5039931;28;20209;-84
2023/10/11 05:28:27;;;;;;;9.88;4.30;;;;;;;17.32;69.42;95900.38;5036211;28;20229;-85
2023/10/11 05:33:45;;;;;;;11.35;4.13;;;;;;;17.33;69.20;95896.78;5035532;28;20213;-84
2023/10/11 05:36:17;;;;;;;11.43;3.90;;;;;;;17.32;68.97;95900.38;5035088;28;20466;-84
2023/10/11 05:52:25;;;;;;;12.52;4.07;;;;;;;17.34;68.44;95882.75;5015825;28;20218;-84
2023/10/11 05:54:54;;;;;;;14.10;4.70;;;;;;;17.37;68.22;95874.53;5015645;28;20198;-84
2023/10/11 05:57:23;;;;;;;16.83;4.70;;;;;;;17.42;67.87;95871.28;5015931;28;20223;-84
2023/10/11 05:59:50;;;;;;;9.77;4.38;;;;;;;17.40;68.39;95888.94;5015641;28;20202;-84
2023/10/11 06:02:18;;;;;;;16.05;4.68;;;;;;;17.37;68.62;95884.13;5032584;28;20222;-84
2023/10/11 06:04:45;;;;;;;18.17;7.85;;;;;;;17.45;68.29;95887.28;5032755;28;20249;-84
2023/10/11 06:07:13;;;;;;;12.57;6.15;;;;;;;17.54;67.66;95873.00;5033556;28;20221;-85
2023/10/11 06:09:43;;;;;;;11.77;4.90;;;;;;;17.70;67.17;95850.09;5033963;28;20198;-85
2023/10/11 06:12:22;;;;;;;12.75;4.25;;;;;;;17.80;66.68;95840.75;5032275;28;20567;-84
2023/10/11 06:14:50;;;;;;;8.48;4.03;;;;;;;17.95;65.75;95817.75;5020611;28;20199;-84
2023/10/11 06:17:21;;;;;;;13.10;4.85;;;;;;;18.17;64.94;95794.66;5013770;28;20222;-84
2023/10/11 06:19:53;;;;;;;9.20;4.10;;;;;;;18.10;64.44;95761.88;5029531;28;20765;-84
2023/10/11 06:22:21;;;;;;;10.20;4.25;;;;;;;18.15;64.52;95762.81;5032009;28;20698;-85
2023/10/11 06:24:48;;;;;;;12.10;4.38;;;;;;;18.44;64.15;95766.47;5050162;28;20201;-85
2023/10/11 06:29:56;;;;;;;12.18;4.78;;;;;;;19.12;61.54;95679.97;5011310;28;20206;-84
2023/10/11 06:32:23;;;;;;;12.80;4.38;;;;;;;19.31;60.05;95623.19;5015650;28;20579;-84
2023/10/11 06:34:50;;;;;;;10.55;3.97;;;;;;;19.55;59.50;95595.25;5019061;28;20236;-85
2023/10/11 06:37:18;;;;;;;10.23;4.10;;;;;;;19.80;59.11;95592.31;5033239;28;20228;-85
2023/10/11 06:42:35;;;;;;;11.50;4.07;;;;;;;19.54;59.10;95572.75;5017732;28;20726;-84
2023/10/11 06:45:05;;;;;;;7.20;4.05;;;;;;;19.20;59.40;95583.03;5013128;28;20205;-85
2023/10/11 06:47:35;;;;;;;8.70;3.90;;;;;;;19.51;59.18;95591.50;5013811;28;20209;-84
2023/10/11 06:50:10;;;;;;;12.70;3.78;;;;;;;19.97;58.34;95553.94;5014244;28;20226;-85
2023/10/11 06:52:43;;;;;;;10.45;4.15;;;;;;;20.42;57.83;95540.03;5032916;28;20201;-85
2023/10/11 06:55:16;;;;;;;9.88;3.88;;;;;;;20.47;57.04;95501.69;5031734;28;20202;-84
2023/10/11 06:57:51;;;;;;;13.30;4.65;;;;;;;20.13;57.10;95500.09;5032327;28;20205;-84
2023/10/11 07:00:22;;;;;;;8.25;3.80;;;;;;;20.15;57.12;95504.06;5032338;28;20213;-84
2023/10/11 07:02:49;;;;;;;11.77;4.22;;;;;;;20.08;57.32;95523.53;5032024;28;20218;-84
2023/10/11 07:05:19;;;;;;;9.30;3.83;;;;;;;19.96;57.63;95526.22;5033339;28;20241;-84
2023/10/11 07:07:48;;;;;;;11.00;4.05;;;;;;;20.02;57.41;95518.22;5030906;28;20198;-84
2023/10/11 07:13:07;;;;;;;11.30;4.00;;;;;;;19.93;57.30;95511.00;5012317;28;20289;-84
2023/10/11 07:15:42;;;;;;;9.98;4.25;;;;;;;19.88;57.69;95522.16;5021765;28;20222;-84
2023/10/11 07:18:11;;;;;;;7.53;3.58;;;;;;;19.89;57.61;95528.19;5033470;28;20201;-85
2023/10/11 07:20:58;;;;;;;11.38;3.80;;;;;;;19.76;58.08;95544.97;5032504;28;20194;-84
2023/10/11 07:23:35;;;;;;;7.57;3.83;;;;;;;19.65;58.12;95551.81;5032251;28;20276;-85
2023/10/11 07:26:22;;;;;;;10.05;3.85;;;;;;;19.85;58.06;95554.00;5032281;28;20225;-85
2023/10/11 07:28:50;;;;;;;11.55;3.95;;;;;;;20.73;56.55;95508.06;5031939;28;20249;-84
2023/10/11 07:31:17;;;;;;;12.35;4.15;;;;;;;21.35;55.12;95458.03;5032694;28;20636;-84
2023/10/11 07:33:49;;;;;;;13.80;4.35;;;;;;;21.85;53.42;95373.00;5031116;28;20206;-84
2023/10/11 07:36:18;;;;;;;8.57;4.10;;;;;;;22.26;52.54;95332.13;5032914;28;20996;-85
2023/10/11 07:38:47;;;;;;;7.65;3.65;;;;;;;22.65;51.41;95277.41;5031392;28;20217;-84
2023/10/11 07:41:18;;;;;;;15.68;4.28;;;;;;;22.91;50.31;95208.16;5026840;28;20241;-84
2023/10/11 07:43:46;;;;;;;9.90;3.95;;;;;;;23.20;49.62;95191.84;5011973;28;20678;-84
2023/10/11 07:46:14;;;;;;;10.05;3.95;;;;;;;23.32;49.22;95151.09;5011861;28;20241;-84
2023/10/11 07:48:40;;;;;;;8.60;3.80;;;;;;;23.47;48.79;95124.00;5029555;28;20216;-84
2023/10/11 07:51:09;;;;;;;9.02;4.03;;;;;;;23.53;48.92;95140.56;5031097;28;20198;-84
2023/10/11 07:53:37;;;;;;;11.50;4.13;;;;;;;23.80;48.84;95134.94;5031808;28;20267;-85
2023/10/11 07:56:04;;;;;;;10.18;3.55;;;;;;;23.96;47.72;95084.63;5029082;28;20241;-84
2023/10/11 07:58:33;;;;;;;8.02;3.78;;;;;;;24.22;46.80;95006.31;5030889;28;20564;-84
2023/10/11 08:01:03;;;;;;;6.35;3.22;;;;;;;24.50;46.30;95025.84;5030772;28;20603;-84
2023/10/11 08:03:34;;;;;;;9.95;3.80;;;;;;;24.68;45.85;94977.75;5030185;28;20277;-84
2023/10/11 08:06:05;;;;;;;12.95;3.97;;;;;;;24.90;45.86;94985.13;5019269;28;20226;-84
2023/10/11 08:08:32;;;;;;;15.40;4.05;;;;;;;25.04;45.41;94958.91;5014477;28;20214;-84
2023/10/11 08:11:00;;;;;;;8.15;3.70;;;;;;;25.10;44.92;94944.63;5029869;28;20206;-84
2023/10/11 08:13:26;;;;;;;11.82;3.53;;;;;;;25.35;45.01;94970.66;5030687;28;20198;-84
2023/10/11 08:15:57;;;;;;;7.03;3.50;;;;;;;25.48;44.26;94933.03;5032075;28;20230;-84
2023/10/11 08:18:23;;;;;;;8.05;2.97;;;;;;;25.47;42.89;94847.09;5032174;28;20306;-85
2023/10/11 08:20:51;;;;;;;9.60;3.75;;;;;;;25.56;43.28;94862.28;5033236;28;20214;-84
2023/10/11 08:23:29;;;;;;;11.70;3.53;;;;;;;25.55;42.68;94827.22;5035504;28;20214;-84
2023/10/11 08:25:55;;;;;;;9.15;3.45;;;;;;;25.68;42.59;94836.25;5034949;28;20249;-84
2023/10/11 08:28:28;;;;;;;7.30;3.25;;;;;;;25.79;42.12;94817.31;5036442;28;20208;-84
2023/10/11 08:30:57;;;;;;;12.25;3.97;;;;;;;25.84;42.12;94805.13;5037488;28;20276;-84
2023/10/11 08:33:25;;;;;;;9.90;3.63;;;;;;;25.92;41.62;94773.59;5033415;28;20936;-84
2023/10/11 08:35:54;;;;;;;9.32;3.40;;;;;;;26.04;41.45;94773.09;5034128;28;20595;-84
2023/10/11 08:38:24;;;;;;;9.50;3.47;;;;;;;26.11;40.92;94747.91;5037358;28;20292;-85
2023/10/11 08:40:57;;;;;;;10.00;3.58;;;;;;;26.30;41.90;94792.69;5032499;28;20200;-84
2023/10/11 08:43:24;;;;;;;8.40;3.53;;;;;;;26.35;40.79;94733.72;5016263;28;20701;-84
2023/10/11 08:45:59;;;;;;;14.27;3.70;;;;;;;26.45;40.95;94744.84;5036193;28;20226;-84
2023/10/11 08:48:26;;;;;;;9.90;3.30;;;;;;;26.56;39.73;94684.66;5037431;28;20267;-85
2023/10/11 08:50:55;;;;;;;7.57;3.67;;;;;;;26.67;39.41;94651.69;5036558;28;20680;-84
2023/10/11 08:53:22;;;;;;;9.38;3.55;;;;;;;26.74;39.10;94625.63;5036285;28;20190;-84
2023/10/11 08:55:56;;;;;;;13.10;4.22;;;;;;;26.71;38.71;94586.63;5015734;28;20276;-85
2023/10/11 08:58:27;;;;;;;12.15;3.35;;;;;;;26.65;37.75;94547.41;5029062;28;20230;-84
2023/10/11 09:00:55;;;;;;;7.90;3.13;;;;;;;26.69;37.63;94557.09;5029574;28;20284;-85
2023/10/11 09:03:23;;;;;;;9.70;3.70;;;;;;;26.75;37.45;94536.59;5029579;28;20218;-85
2023/10/11 09:05:58;;;;;;;9.70;3.58;;;;;;;26.78;37.40;94525.41;5036156;28;20565;-85
2023/10/11 09:08:31;;;;;;;8.25;3.13;;;;;;;26.84;37.19;94517.06;5036789;28;20202;-85
2023/10/11 09:11:11;;;;;;;7.63;3.22;;;;;;;26.84;36.60;94488.00;5036910;28;20539;-85
2023/10/11 09:13:37;;;;;;;8.15;3.72;;;;;;;26.80;36.82;94463.28;5037528;28;20206;-85
2023/10/11 09:16:12;;;;;;;8.88;3.45;;;;;;;26.57;35.76;94424.03;5037117;28;20226;-85
2023/10/11 09:18:38;;;;;;;10.13;3.22;;;;;;;26.55;36.72;94485.09;5036224;28;20196;-85
2023/10/11 09:21:15;;;;;;;7.63;3.22;;;;;;;26.48;37.02;94511.94;5035896;28;20225;-84
2023/10/11 09:23:46;;;;;;;9.00;3.45;;;;;;;26.36;37.11;94500.38;5044309;28;20193;-84
2023/10/11 09:26:20;;;;;;;11.57;3.50;;;;;;;26.33;38.66;94565.09;5050065;28;20214;-84
2023/10/11 09:28:52;;;;;;;9.13;4.05;;;;;;;26.37;37.69;94536.22;5035860;28;20289;-85
2023/10/11 09:31:23;;;;;;;8.27;3.60;;;;;;;26.36;38.59;94582.94;5034003;28;20197;-85
2023/10/11 09:33:52;;;;;;;8.57;3.40;;;;;;;26.42;37.81;94573.06;5033637;28;20199;-85
2023/10/11 09:36:20;;;;;;;5.82;3.20;;;;;;;26.45;38.02;94543.41;5035385;28;20234;-85
2023/10/11 09:38:54;;;;;;;10.20;3.30;;;;;;;26.51;37.94;94560.72;5034805;28;20213;-85
2023/10/11 09:41:24;;;;;;;10.27;3.70;;;;;;;26.53;37.63;94555.13;5029934;28;20191;-85
2023/10/11 09:43:54;;;;;;;6.82;3.28;;;;;;;26.58;37.54;94557.63;5027526;28;20205;-85
2023/10/11 09:46:22;;;;;;;10.43;3.15;;;;;;;26.51;37.93;94549.38;5035459;28;20214;-85
2023/10/11 09:48:49;;;;;;;7.75;3.42;;;;;;;26.48;37.37;94543.59;5033104;28;20209;-85
2023/10/11 09:51:17;;;;;;;6.13;3.50;;;;;;;26.46;38.02;94588.00;5033160;28;20679;-85
2023/10/11 09:53:49;;;;;;;8.05;3.22;;;;;;;26.50;38.38;94577.63;5033207;28;20221;-85
2023/10/11 09:56:30;;;;;;;8.05;3.35;;;;;;;26.45;37.91;94569.81;5026364;28;20222;-85
2023/10/11 09:59:08;;;;;;;10.13;3.20;;;;;;;26.52;38.44;94601.88;5020933;28;20218;-85
2023/10/11 10:01:40;;;;;;;10.85;3.45;;;;;;;26.46;38.23;94580.09;5022603;28;20194;-85
2023/10/11 10:04:07;;;;;;;12.80;4.05;;;;;;;26.40;38.05;94588.41;5032203;28;20228;-84
2023/10/11 10:06:33;;;;;;;7.50;3.08;;;;;;;26.38;38.93;94599.28;5032236;28;20873;-85
2023/10/11 10:09:24;;;;;;;9.95;3.65;;;;;;;26.49;39.14;94628.88;5033223;28;20203;-84
2023/10/11 10:12:25;;;;;;;13.40;3.58;;;;;;;26.48;38.72;94627.31;5038148;28;20194;-84
2023/10/11 10:15:09;;;;;;;11.13;3.58;;;;;;;26.39;38.15;94594.78;5031322;28;20206;-84
2023/10/11 10:17:37;;;;;;;10.65;3.17;;;;;;;26.25;38.96;94602.72;5034721;28;20262;-84
2023/10/11 10:20:46;;;;;;;8.43;3.38;;;;;;;26.22;39.10;94631.56;5030797;28;20289;-85
2023/10/11 10:23:29;;;;;;;8.15;3.50;;;;;;;26.05;39.45;94625.06;5016982;28;20228;-84
2023/10/11 10:26:38;;;;;;;7.85;3.55;;;;;;;26.01;39.39;94654.97;5052308;28;20228;-84
2023/10/11 10:29:09;;;;;;;5.72;3.10;;;;;;;26.00;40.26;94674.50;5035834;28;20660;-84
2023/10/11 10:31:36;;;;;;;9.57;3.58;;;;;;;26.09;40.46;94688.56;5032226;28;20212;-84
2023/10/11 10:34:29;;;;;;;9.55;3.60;;;;;;;26.19;39.72;94675.16;5031173;28;20198;-84
2023/10/11 10:36:59;;;;;;;12.85;3.60;;;;;;;26.18;39.30;94663.03;5029523;28;20842;-84
2023/10/11 10:39:36;;;;;;;5.80;3.05;;;;;;;26.20;40.02;94657.47;5011567;28;20683;-87
2023/10/11 10:42:19;;;;;;;9.10;3.22;;;;;;;26.20;39.85;94671.44;5013596;28;20716;-89
2023/10/11 10:45:05;;;;;;;7.75;3.17;;;;;;;26.15;39.52;94637.25;5021582;28;20209;-87
2023/10/11 10:47:32;;;;;;;9.52;3.35;;;;;;;26.16;39.57;94623.00;4988131;28;20575;-88
2023/10/11 10:50:06;;;;;;;9.93;3.63;;;;;;;26.16;39.31;94596.63;5028546;28;20206;-87
2023/10/11 10:52:34;;;;;;;7.75;3.42;;;;;;;26.22;39.11;94611.22;5026909;28;20201;-88
2023/10/11 10:55:03;;;;;;;11.55;3.55;;;;;;;26.25;39.49;94620.41;5019003;28;20198;-88
2023/10/11 10:57:33;;;;;;;10.13;3.33;;;;;;;26.26;39.18;94611.41;5009182;28;20930;-86
2023/10/11 11:00:05;;;;;;;9.85;3.75;;;;;;;26.19;38.60;94589.94;5019412;28;20316;-85
2023/10/11 11:02:36;;;;;;;7.68;3.95;;;;;;;26.22;39.17;94586.69;5013620;28;20222;-85
2023/10/11 11:05:13;;;;;;;12.98;4.30;;;;;;;26.17;39.47;94598.16;5026861;28;20206;-85
2023/10/11 11:07:39;;;;;;;7.85;3.85;;;;;;;26.07;39.22;94583.34;5030380;28;20190;-85
2023/10/11 11:10:07;;;;;;;9.48;3.80;;;;;;;26.06;39.01;94583.63;5027773;28;20206;-85
2023/10/11 11:12:32;;;;;;;9.15;3.92;;;;;;;26.04;39.12;94585.78;5036722;28;20201;-84
2023/10/11 11:14:59;;;;;;;9.18;3.75;;;;;;;26.02;39.93;94614.31;5036534;28;20202;-85
2023/10/11 11:17:45;;;;;;;8.73;3.13;;;;;;;25.98;39.37;94598.28;5030920;28;20236;-85
2023/10/11 11:20:15;;;;;;;5.88;3.08;;;;;;;25.94;39.84;94613.19;5040631;28;20201;-85
2023/10/11 11:22:42;;;;;;;11.45;3.75;;;;;;;25.87;39.93;94604.88;5041835;28;20236;-85
2023/10/11 11:25:26;;;;;;;7.30;3.35;;;;;;;26.01;40.02;94639.91;5039129;28;20210;-85
2023/10/11 11:28:01;;;;;;;6.70;3.28;;;;;;;26.08;40.47;94640.31;5035046;28;20206;-85
2023/10/11 11:30:33;;;;;;;9.50;3.65;;;;;;;26.11;40.16;94642.34;5035567;28;20261;-85
2023/10/11 11:33:08;;;;;;;10.10;3.60;;;;;;;26.13;40.18;94623.59;5021209;28;20203;-85
2023/10/11 11:35:44;;;;;;;7.55;3.67;;;;;;;26.14;40.10;94598.75;5016907;28;20208;-85
2023/10/11 11:38:20;;;;;;;9.48;3.42;;;;;;;26.14;40.06;94599.53;5031124;28;20288;-85
2023/10/11 11:40:47;;;;;;;6.40;3.28;;;;;;;26.13;39.62;94584.00;5028557;28;20202;-84
2023/10/11 11:43:16;;;;;;;6.65;3.65;;;;;;;26.19;40.07;94585.44;5030898;28;20262;-84
2023/10/11 11:45:51;;;;;;;10.60;3.50;;;;;;;26.34;40.09;94622.09;5029206;28;20230;-90
2023/10/11 11:48:23;;;;;;;8.95;3.65;;;;;;;26.48;39.91;94606.19;5031276;28;20295;-85
2023/10/11 11:50:50;;;;;;;10.85;5.13;;;;;;;26.57;40.08;94603.59;5021663;28;20199;-85
2023/10/11 11:53:18;;;;;;;9.63;4.00;;;;;;;26.67;39.76;94576.94;5031010;28;20233;-85
2023/10/11 11:55:44;;;;;;;12.60;3.67;;;;;;;26.68;39.14;94529.13;5034975;28;20222;-85
2023/10/11 11:58:11;;;;;;;13.88;3.72;;;;;;;26.69;39.03;94524.63;5030233;28;20722;-85
2023/10/11 12:00:40;;;;;;;8.93;3.50;;;;;;;26.70;38.06;94491.84;5035588;28;20209;-85
2023/10/11 12:03:08;;;;;;;6.72;3.40;;;;;;;26.66;37.76;94459.19;5034545;28;20267;-85
2023/10/11 12:05:40;;;;;;;7.95;3.50;;;;;;;26.59;38.48;94477.31;5034769;28;20656;-86
2023/10/11 12:08:18;;;;;;;7.43;3.83;;;;;;;26.47;38.30;94459.44;5034999;28;20760;-86
2023/10/11 12:10:47;;;;;;;9.57;4.40;;;;;;;26.63;38.51;94502.06;5035034;28;20205;-85
2023/10/11 12:13:22;;;;;;;10.98;3.53;;;;;;;26.77;38.63;94522.00;5033238;28;20620;-85
2023/10/11 12:15:49;;;;;;;11.07;3.63;;;;;;;26.83;38.78;94515.50;5034310;28;20252;-85